Time;durP1;ratioP1;P1;durP2;ratioP2;P2;SDS_P1;SDS_P2;PMS_P1;PMS_P2;Temp;Humidity;BMP_temperature;BMP_pressure;BME280_temperature;BME280_humidity;BME280_pressure;Samples;Min_cycle;Max_cycle;Signal;HPM_P1;HPM_P2
2023/01/24 00:02:13;;;;;;;35.78;23.00;;;3.30;99.90;;;;;;5067886;28;20362;-57
2023/01/24 00:04:40;;;;;;;32.35;21.23;;;3.30;99.90;;;;;;5069412;28;20175;-56
2023/01/24 00:07:06;;;;;;;34.70;22.30;;;3.30;99.90;;;;;;5071585;28;20045;-58
2023/01/24 00:09:33;;;;;;;34.33;21.92;;;3.30;99.90;;;;;;5068132;28;20084;-59
2023/01/24 00:12:00;;;;;;;34.10;21.77;;;3.30;99.90;;;;;;5061628;28;20064;-58
2023/01/24 00:14:27;;;;;;;36.72;21.77;;;3.30;99.90;;;;;;5063828;28;20484;-51
2023/01/24 00:16:55;;;;;;;37.00;22.50;;;3.30;99.90;;;;;;5062339;28;20052;-57
2023/01/24 00:19:22;;;;;;;35.40;23.95;;;3.30;99.90;;;;;;5052358;28;20045;-53
2023/01/24 00:21:48;;;;;;;33.50;23.15;;;3.30;99.90;;;;;;5070419;28;20076;-58
2023/01/24 00:24:15;;;;;;;34.13;22.63;;;3.30;99.90;;;;;;5065988;28;20492;-58
2023/01/24 00:26:42;;;;;;;39.97;23.98;;;3.30;99.90;;;;;;5059608;28;20096;-51
2023/01/24 00:29:09;;;;;;;39.15;24.25;;;3.20;99.90;;;;;;5066446;28;20136;-58
2023/01/24 00:31:35;;;;;;;36.85;23.05;;;3.30;99.90;;;;;;5063958;28;20091;-59
2023/01/24 00:34:04;;;;;;;35.78;22.80;;;3.30;99.90;;;;;;5065899;28;20471;-57
2023/01/24 00:36:30;;;;;;;34.28;21.58;;;3.20;99.90;;;;;;5058631;28;20531;-58
2023/01/24 00:38:57;;;;;;;33.67;21.48;;;3.30;99.90;;;;;;5054852;28;20099;-59
2023/01/24 00:41:24;;;;;;;35.05;21.55;;;3.20;99.90;;;;;;5050779;28;20505;-58
2023/01/24 00:43:51;;;;;;;37.60;21.92;;;3.30;99.90;;;;;;5056554;28;20078;-58
2023/01/24 00:46:18;;;;;;;30.73;21.27;;;3.30;99.90;;;;;;5070847;28;20044;-58
2023/01/24 00:48:44;;;;;;;34.67;22.45;;;3.30;99.90;;;;;;5071132;28;20048;-59
2023/01/24 00:51:13;;;;;;;32.08;21.33;;;3.30;99.90;;;;;;5071042;28;20076;-56
2023/01/24 00:53:39;;;;;;;33.90;21.48;;;3.30;99.90;;;;;;5062362;28;20049;-58
2023/01/24 00:56:07;;;;;;;33.50;20.98;;;3.30;99.90;;;;;;5063694;28;20080;-51
2023/01/24 00:58:34;;;;;;;36.90;21.80;;;3.30;99.90;;;;;;5073429;28;20126;-56
2023/01/24 01:01:03;;;;;;;40.47;22.52;;;3.30;99.90;;;;;;5074356;28;20083;-55
2023/01/24 01:03:30;;;;;;;40.55;24.25;;;3.30;99.90;;;;;;5064833;28;20045;-57
2023/01/24 01:06:00;;;;;;;36.13;22.60;;;3.30;99.90;;;;;;5066526;28;20076;-58
2023/01/24 01:08:28;;;;;;;38.05;23.52;;;3.30;99.90;;;;;;5066727;28;20080;-58
2023/01/24 01:10:55;;;;;;;38.08;23.17;;;3.30;99.90;;;;;;5065468;28;20098;-58
2023/01/24 01:13:22;;;;;;;37.20;22.60;;;3.30;99.90;;;;;;5074129;28;20450;-48
2023/01/24 01:15:49;;;;;;;37.25;22.58;;;3.30;99.90;;;;;;5066903;28;20505;-58
2023/01/24 01:18:16;;;;;;;38.35;23.50;;;3.30;99.90;;;;;;5069777;28;20049;-59
2023/01/24 01:20:42;;;;;;;37.20;23.05;;;3.30;99.90;;;;;;5073820;28;20079;-59
2023/01/24 01:23:09;;;;;;;38.58;23.70;;;3.30;99.90;;;;;;5071697;28;20565;-55
2023/01/24 01:25:40;;;;;;;36.47;22.50;;;3.30;99.90;;;;;;5073465;28;20098;-57
2023/01/24 01:28:07;;;;;;;38.33;24.20;;;3.30;99.90;;;;;;5055147;28;20081;-59
2023/01/24 01:30:33;;;;;;;41.33;24.60;;;3.20;99.90;;;;;;5069597;28;20088;-57
2023/01/24 01:33:00;;;;;;;36.22;23.30;;;3.30;99.90;;;;;;5073881;28;20567;-58
2023/01/24 01:35:27;;;;;;;39.40;23.63;;;3.30;99.90;;;;;;5068814;28;20076;-59
2023/01/24 01:37:54;;;;;;;39.13;23.25;;;3.30;99.90;;;;;;5071044;28;20106;-59
2023/01/24 01:40:21;;;;;;;40.78;25.25;;;3.30;99.90;;;;;;5065560;28;20147;-57
2023/01/24 01:42:53;;;;;;;38.88;23.50;;;3.30;99.90;;;;;;5072962;28;20052;-57
2023/01/24 01:45:41;;;;;;;38.05;23.58;;;3.30;99.90;;;;;;5069830;28;20102;-58
2023/01/24 01:48:21;;;;;;;41.40;24.52;;;3.30;99.90;;;;;;5064654;28;20095;-57
2023/01/24 01:50:51;;;;;;;40.28;24.42;;;3.30;99.90;;;;;;5055136;28;20092;-57
2023/01/24 01:53:18;;;;;;;38.47;23.25;;;3.30;99.90;;;;;;5061730;28;20049;-59
2023/01/24 01:55:46;;;;;;;39.50;23.98;;;3.30;99.90;;;;;;5062195;28;20110;-58
2023/01/24 01:58:15;;;;;;;38.03;24.02;;;3.40;99.90;;;;;;5073519;28;20076;-57
2023/01/24 02:00:49;;;;;;;41.60;24.23;;;3.30;99.90;;;;;;5072391;28;20137;-58
2023/01/24 02:06:01;;;;;;;36.78;21.05;;;3.30;99.90;;;;;;5072960;28;20040;-58
2023/01/24 02:08:27;;;;;;;31.85;20.08;;;3.30;99.90;;;;;;5059546;28;20107;-56
2023/01/24 02:13:43;;;;;;;38.83;23.13;;;3.30;99.90;;;;;;5057859;28;20053;-53
2023/01/24 02:16:09;;;;;;;37.33;24.27;;;3.30;99.90;;;;;;5070442;28;20101;-58
2023/01/24 02:18:37;;;;;;;37.20;22.90;;;3.30;99.90;;;;;;5071632;28;20078;-56
2023/01/24 02:21:05;;;;;;;38.15;22.83;;;3.30;99.90;;;;;;5072094;28;20704;-57
2023/01/24 02:23:36;;;;;;;38.38;23.05;;;3.30;99.90;;;;;;5059906;28;20074;-58
2023/01/24 02:26:08;;;;;;;39.55;23.88;;;3.30;99.90;;;;;;5065858;28;20049;-59
2023/01/24 02:28:35;;;;;;;34.70;22.05;;;3.30;99.90;;;;;;5074298;28;20041;-55
2023/01/24 02:31:02;;;;;;;34.08;22.10;;;3.30;99.90;;;;;;5072713;28;20052;-58
2023/01/24 02:33:29;;;;;;;37.28;21.30;;;3.20;99.90;;;;;;5067665;28;20083;-58
2023/01/24 02:36:12;;;;;;;31.67;20.77;;;3.30;99.90;;;;;;5069181;28;20496;-58
2023/01/24 02:38:39;;;;;;;33.85;20.70;;;3.30;99.90;;;;;;5071455;28;20484;-57
2023/01/24 02:41:06;;;;;;;34.30;21.60;;;3.30;99.90;;;;;;5071015;28;20522;-57
2023/01/24 02:43:35;;;;;;;32.22;20.42;;;3.30;99.90;;;;;;5073861;28;20052;-57
2023/01/24 02:46:02;;;;;;;32.20;20.35;;;3.30;99.90;;;;;;5072612;28;20129;-50
2023/01/24 02:48:29;;;;;;;31.60;20.75;;;3.30;99.90;;;;;;5070363;28;20078;-57
2023/01/24 02:53:40;;;;;;;28.48;18.33;;;3.30;99.90;;;;;;5058639;28;20435;-57
2023/01/24 02:58:54;;;;;;;27.63;18.75;;;3.30;99.90;;;;;;5083807;28;20056;-58
2023/01/24 03:01:21;;;;;;;27.77;18.20;;;3.30;99.90;;;;;;5067352;28;20101;-58
2023/01/24 03:03:48;;;;;;;29.02;18.55;;;3.30;99.90;;;;;;5067809;28;20072;-49
2023/01/24 03:06:16;;;;;;;31.67;18.20;;;3.30;99.90;;;;;;5064655;28;20060;-58
2023/01/24 03:08:43;;;;;;;29.05;17.15;;;3.30;99.90;;;;;;5065339;28;20139;-58
2023/01/24 03:11:10;;;;;;;25.45;17.02;;;3.20;99.90;;;;;;5072401;28;20151;-58
2023/01/24 03:35:53;;;;;;;29.52;19.33;;;3.10;99.90;;;;;;5071460;28;20072;-40
2023/01/24 03:41:06;;;;;;;28.88;18.67;;;3.20;99.90;;;;;;5069122;28;20060;-49
2023/01/24 03:43:33;;;;;;;27.58;19.33;;;3.10;99.90;;;;;;5066887;28;20060;-58
2023/01/24 03:45:59;;;;;;;29.95;18.95;;;3.10;99.90;;;;;;5068611;28;20045;-58
2023/01/24 03:48:36;;;;;;;30.05;18.98;;;3.20;99.90;;;;;;5065033;28;20136;-57
2023/01/24 03:53:47;;;;;;;31.98;20.00;;;3.10;99.90;;;;;;5062692;28;20053;-57
2023/01/24 03:56:13;;;;;;;29.92;19.63;;;3.10;99.90;;;;;;5054309;28;20169;-57
2023/01/24 03:58:40;;;;;;;31.65;20.10;;;3.10;99.90;;;;;;5073910;28;20083;-58
2023/01/24 04:01:07;;;;;;;28.85;19.63;;;3.20;99.90;;;;;;5061769;28;20110;-59
2023/01/24 04:03:35;;;;;;;32.13;20.40;;;3.10;99.90;;;;;;5064150;28;20546;-58
2023/01/24 04:06:02;;;;;;;29.35;19.70;;;3.10;99.90;;;;;;5068905;28;20131;-58
2023/01/24 04:08:29;;;;;;;31.67;20.98;;;3.10;99.90;;;;;;5067618;28;20098;-50
2023/01/24 04:10:56;;;;;;;33.08;21.52;;;3.10;99.90;;;;;;5059711;28;20053;-57
2023/01/24 04:13:23;;;;;;;29.70;19.75;;;3.10;99.90;;;;;;5058187;28;20059;-58
2023/01/24 04:15:50;;;;;;;30.83;20.20;;;3.20;99.90;;;;;;5069984;28;20107;-57
2023/01/24 04:18:17;;;;;;;31.90;20.33;;;3.10;99.90;;;;;;5071629;28;20056;-58
2023/01/24 04:20:45;;;;;;;32.78;19.10;;;3.20;99.90;;;;;;5071688;28;20137;-57
2023/01/24 04:23:12;;;;;;;29.17;18.95;;;3.10;99.90;;;;;;5066890;28;20090;-52
2023/01/24 04:25:38;;;;;;;38.50;18.75;;;3.10;99.90;;;;;;5067601;28;20052;-53
2023/01/24 04:28:05;;;;;;;27.05;17.45;;;3.10;99.90;;;;;;5073089;28;20091;-58
2023/01/24 04:30:32;;;;;;;26.80;18.08;;;3.10;99.90;;;;;;5062502;28;20507;-57
2023/01/24 04:32:59;;;;;;;30.90;17.95;;;3.10;99.90;;;;;;5073854;28;20048;-58
2023/01/24 04:35:26;;;;;;;26.55;17.83;;;3.10;99.90;;;;;;5073505;28;20087;-56
2023/01/24 04:38:00;;;;;;;26.80;18.10;;;3.10;99.90;;;;;;5066037;28;20092;-55
2023/01/24 04:40:27;;;;;;;28.65;17.85;;;3.10;99.90;;;;;;5068638;28;20056;-52
2023/01/24 04:42:56;;;;;;;24.85;16.30;;;3.10;99.90;;;;;;5055596;28;20449;-56
2023/01/24 04:45:22;;;;;;;25.30;17.08;;;3.10;99.90;;;;;;5071510;28;20513;-57
2023/01/24 04:47:49;;;;;;;25.23;16.00;;;3.10;99.90;;;;;;5064102;28;20056;-57
2023/01/24 04:50:16;;;;;;;25.15;16.15;;;3.10;99.90;;;;;;5063614;28;20049;-57
2023/01/24 04:52:43;;;;;;;28.15;16.20;;;3.10;99.90;;;;;;5071128;28;20083;-58
2023/01/24 04:55:11;;;;;;;26.60;16.45;;;3.10;99.90;;;;;;5075646;28;20113;-53
2023/01/24 04:57:38;;;;;;;24.55;16.15;;;3.10;99.90;;;;;;5073482;28;20098;-58
2023/01/24 05:00:07;;;;;;;26.58;15.77;;;3.10;99.90;;;;;;5069685;28;20084;-53
2023/01/24 05:02:35;;;;;;;24.95;15.90;;;3.10;99.90;;;;;;5062995;28;20080;-57
2023/01/24 05:05:02;;;;;;;29.15;15.55;;;3.10;99.90;;;;;;5073438;28;20409;-58
2023/01/24 05:07:28;;;;;;;23.80;15.02;;;3.10;99.90;;;;;;5078865;28;20080;-55
2023/01/24 05:09:55;;;;;;;23.02;14.88;;;3.10;99.90;;;;;;5073195;28;20044;-54
2023/01/24 05:12:23;;;;;;;22.42;15.02;;;3.10;99.90;;;;;;5074205;28;20488;-57
2023/01/24 05:14:50;;;;;;;23.02;15.40;;;3.00;99.90;;;;;;5067610;28;20107;-58
2023/01/24 05:17:17;;;;;;;23.15;14.75;;;3.10;99.90;;;;;;5069181;28;20076;-55
2023/01/24 05:19:44;;;;;;;23.25;15.40;;;3.00;99.90;;;;;;5070456;28;20056;-58
2023/01/24 05:22:11;;;;;;;24.10;15.07;;;3.00;99.90;;;;;;5073149;28;20102;-55
2023/01/24 05:24:37;;;;;;;26.23;15.20;;;3.00;99.90;;;;;;5073159;28;20079;-58
2023/01/24 05:27:04;;;;;;;22.30;14.35;;;3.10;99.90;;;;;;5065677;28;20096;-51
2023/01/24 05:29:32;;;;;;;22.88;14.35;;;3.00;99.90;;;;;;5070985;28;20116;-57
2023/01/24 05:31:59;;;;;;;20.38;14.00;;;3.00;99.90;;;;;;5073101;28;20056;-49
2023/01/24 05:34:26;;;;;;;20.92;13.35;;;3.00;99.90;;;;;;5055181;28;20092;-57
2023/01/24 05:36:53;;;;;;;21.48;13.57;;;3.00;99.90;;;;;;5068326;28;20101;-57
2023/01/24 05:39:19;;;;;;;23.63;13.63;;;3.00;99.90;;;;;;5073112;28;20089;-55
2023/01/24 05:41:46;;;;;;;21.02;13.25;;;3.00;99.90;;;;;;5069481;28;20057;-52
2023/01/24 05:44:13;;;;;;;18.33;12.60;;;3.00;99.90;;;;;;5072036;28;20087;-57
2023/01/24 05:46:43;;;;;;;19.13;12.98;;;3.00;99.90;;;;;;5073963;28;20080;-53
2023/01/24 05:49:10;;;;;;;23.38;13.55;;;3.00;99.90;;;;;;5064095;28;20403;-57
2023/01/24 05:51:37;;;;;;;22.17;14.15;;;3.00;99.90;;;;;;5073460;28;20045;-59
2023/01/24 05:54:03;;;;;;;17.90;13.00;;;3.00;99.90;;;;;;5073138;28;20052;-57
2023/01/24 05:56:30;;;;;;;20.95;13.20;;;3.00;99.90;;;;;;5072953;28;20131;-50
2023/01/24 05:59:00;;;;;;;21.95;13.75;;;3.00;99.90;;;;;;5072591;28;20092;-59
2023/01/24 06:01:27;;;;;;;20.45;13.48;;;2.90;99.90;;;;;;5070578;28;20052;-57
2023/01/24 06:03:55;;;;;;;20.75;13.85;;;2.90;99.90;;;;;;5071130;28;20053;-56
2023/01/24 06:06:23;;;;;;;21.95;14.18;;;3.00;99.90;;;;;;5074628;28;20455;-57
2023/01/24 06:08:50;;;;;;;22.88;13.95;;;2.90;99.90;;;;;;5052626;28;20052;-57
2023/01/24 06:11:18;;;;;;;20.52;13.15;;;2.90;99.90;;;;;;5067321;28;20044;-49
2023/01/24 06:13:45;;;;;;;22.77;13.93;;;2.90;99.90;;;;;;5067507;28;20095;-53
2023/01/24 06:16:13;;;;;;;20.55;13.27;;;3.00;99.90;;;;;;5068011;28;20051;-58
2023/01/24 06:18:40;;;;;;;18.75;12.02;;;2.90;99.90;;;;;;5060434;28;20103;-57
2023/01/24 06:21:27;;;;;;;21.42;13.32;;;3.00;99.90;;;;;;5062392;28;20469;-58
2023/01/24 06:23:54;;;;;;;20.08;13.10;;;2.90;99.90;;;;;;5059929;28;20048;-58
2023/01/24 06:26:21;;;;;;;19.25;12.95;;;2.90;99.90;;;;;;5063678;28;20080;-58
2023/01/24 06:28:49;;;;;;;21.20;13.23;;;2.90;99.90;;;;;;5064754;28;20135;-58
2023/01/24 06:31:27;;;;;;;17.92;12.35;;;2.90;99.90;;;;;;5060839;28;20106;-52
2023/01/24 06:34:03;;;;;;;21.30;13.38;;;2.90;99.90;;;;;;5062444;28;20464;-58
2023/01/24 06:36:40;;;;;;;19.85;13.15;;;2.90;99.90;;;;;;5066055;28;20045;-56
2023/01/24 06:39:11;;;;;;;19.23;12.45;;;2.90;99.90;;;;;;5068100;28;20040;-58
2023/01/24 06:41:38;;;;;;;19.30;13.32;;;2.90;99.90;;;;;;5068194;28;20484;-56
2023/01/24 06:44:07;;;;;;;26.75;13.80;;;2.90;99.90;;;;;;5060928;28;20081;-58
2023/01/24 06:46:33;;;;;;;21.30;13.55;;;2.90;99.90;;;;;;5066113;28;20044;-55
2023/01/24 06:49:00;;;;;;;21.13;13.45;;;2.90;99.90;;;;;;5063896;28;20048;-58
2023/01/24 06:51:27;;;;;;;19.38;12.82;;;2.90;99.90;;;;;;5061155;28;20131;-57
2023/01/24 06:53:55;;;;;;;21.05;14.00;;;2.90;99.90;;;;;;5063275;28;20102;-57
2023/01/24 06:56:22;;;;;;;21.63;13.85;;;2.80;99.90;;;;;;5057474;28;20037;-56
2023/01/24 06:58:49;;;;;;;21.80;13.40;;;2.90;99.90;;;;;;5053627;28;20088;-58
2023/01/24 07:01:15;;;;;;;20.45;12.85;;;2.80;99.90;;;;;;5054579;28;20048;-53
2023/01/24 07:03:42;;;;;;;23.38;14.00;;;2.80;99.90;;;;;;5060276;28;20511;-58
2023/01/24 07:06:09;;;;;;;22.95;13.65;;;2.80;99.90;;;;;;5055607;28;20471;-56
2023/01/24 07:08:36;;;;;;;23.40;13.75;;;2.80;99.90;;;;;;5072477;28;20098;-57
2023/01/24 07:11:04;;;;;;;21.85;13.27;;;2.80;99.90;;;;;;5069452;28;21152;-58
2023/01/24 07:13:31;;;;;;;20.02;13.27;;;2.80;99.90;;;;;;5077013;28;20072;-55
2023/01/24 07:16:00;;;;;;;20.80;13.82;;;2.80;99.90;;;;;;5082475;28;20449;-57
2023/01/24 07:18:28;;;;;;;23.63;14.43;;;2.80;99.90;;;;;;5093679;28;20141;-57
2023/01/24 07:20:55;;;;;;;22.73;14.30;;;2.80;99.90;;;;;;5081294;28;20451;-58
2023/01/24 07:23:23;;;;;;;23.52;14.57;;;2.80;99.90;;;;;;5089038;28;21309;-57
2023/01/24 07:25:51;;;;;;;22.70;14.20;;;2.80;99.90;;;;;;5088590;28;20150;-58
2023/01/24 07:28:19;;;;;;;21.45;14.48;;;2.80;99.90;;;;;;5092299;28;20048;-53
2023/01/24 07:30:46;;;;;;;21.83;13.98;;;2.80;99.90;;;;;;5072869;28;20568;-58
2023/01/24 07:33:14;;;;;;;21.88;15.00;;;2.80;99.90;;;;;;5057857;28;20502;-58
2023/01/24 07:35:40;;;;;;;23.13;13.95;;;2.80;99.90;;;;;;5071938;28;20053;-58
2023/01/24 07:38:07;;;;;;;24.77;14.27;;;2.80;99.90;;;;;;5066306;28;20074;-58
2023/01/24 07:40:34;;;;;;;23.20;14.10;;;2.80;99.90;;;;;;5074772;28;20048;-58
2023/01/24 07:43:01;;;;;;;22.92;14.70;;;2.80;99.90;;;;;;5076798;28;20052;-58
2023/01/24 07:45:30;;;;;;;22.35;14.25;;;2.80;99.90;;;;;;5067141;28;20052;-58
2023/01/24 07:47:57;;;;;;;22.90;14.40;;;2.80;99.90;;;;;;5072046;28;20062;-58
2023/01/24 07:50:24;;;;;;;25.58;14.00;;;2.70;99.90;;;;;;5070936;28;20052;-58
2023/01/24 07:52:51;;;;;;;22.13;14.30;;;2.70;99.90;;;;;;5072174;28;20090;-58
2023/01/24 07:55:18;;;;;;;22.58;15.02;;;2.80;99.90;;;;;;5072777;28;20048;-58
2023/01/24 07:57:45;;;;;;;21.30;14.82;;;2.70;99.90;;;;;;5072614;28;20057;-58
2023/01/24 08:00:13;;;;;;;22.60;14.43;;;2.70;99.90;;;;;;5072402;28;20110;-57
2023/01/24 08:02:41;;;;;;;23.52;13.93;;;2.70;99.90;;;;;;5071803;28;20048;-58
2023/01/24 08:05:08;;;;;;;22.20;14.75;;;2.70;99.90;;;;;;5068773;28;20060;-58
2023/01/24 08:07:35;;;;;;;22.30;14.40;;;2.70;99.90;;;;;;5071178;28;20049;-58
2023/01/24 08:10:02;;;;;;;22.42;13.70;;;2.70;99.90;;;;;;5072507;28;20044;-58
2023/01/24 08:12:29;;;;;;;24.23;14.95;;;2.70;99.90;;;;;;5071606;28;20084;-58
2023/01/24 08:14:55;;;;;;;23.48;15.32;;;2.70;99.90;;;;;;5070883;28;20113;-59
2023/01/24 08:17:22;;;;;;;23.55;14.68;;;2.70;99.90;;;;;;5072801;28;20045;-56
2023/01/24 08:19:50;;;;;;;22.45;14.70;;;2.70;99.90;;;;;;5069863;28;20106;-58
2023/01/24 08:22:17;;;;;;;22.35;14.88;;;2.80;99.90;;;;;;5071059;28;20087;-58
2023/01/24 08:24:44;;;;;;;21.73;14.52;;;2.80;99.90;;;;;;5072124;28;20479;-58
2023/01/24 08:27:11;;;;;;;21.90;14.63;;;2.70;99.90;;;;;;5072549;28;20045;-58
2023/01/24 08:29:38;;;;;;;21.05;15.05;;;2.80;99.90;;;;;;5071337;28;20465;-59
2023/01/24 08:32:05;;;;;;;22.27;14.43;;;2.70;99.90;;;;;;5054832;28;20106;-58
2023/01/24 08:34:32;;;;;;;23.65;15.18;;;2.70;99.90;;;;;;5051366;28;20114;-55
2023/01/24 08:37:00;;;;;;;21.27;14.75;;;2.80;99.90;;;;;;5071931;28;20048;-52
2023/01/24 08:39:27;;;;;;;20.65;13.93;;;2.80;99.90;;;;;;5070909;28;20110;-57
2023/01/24 08:41:53;;;;;;;22.73;13.65;;;2.80;99.90;;;;;;5072275;28;20102;-57
2023/01/24 08:44:20;;;;;;;20.58;14.55;;;2.80;99.90;;;;;;5072139;28;20516;-57
2023/01/24 08:46:47;;;;;;;22.13;15.13;;;2.70;99.90;;;;;;5070174;28;20052;-56
2023/01/24 08:49:14;;;;;;;21.42;14.48;;;2.80;99.90;;;;;;5072206;28;20045;-57
2023/01/24 08:51:41;;;;;;;21.55;14.43;;;2.70;99.90;;;;;;5072467;28;20088;-58
2023/01/24 08:54:09;;;;;;;21.95;14.43;;;2.70;99.90;;;;;;5069714;28;20079;-57
2023/01/24 08:56:36;;;;;;;25.35;15.35;;;2.80;99.90;;;;;;5072019;28;20128;-56
2023/01/24 08:59:02;;;;;;;21.48;14.93;;;2.80;99.90;;;;;;5069867;28;20127;-49
2023/01/24 09:01:29;;;;;;;25.48;14.75;;;2.80;99.90;;;;;;5069215;28;20067;-58
2023/01/24 09:03:56;;;;;;;22.08;14.75;;;2.80;99.90;;;;;;5071943;28;20554;-58
2023/01/24 09:06:24;;;;;;;22.55;14.95;;;2.80;99.90;;;;;;5072304;28;20452;-57
2023/01/24 09:08:52;;;;;;;23.08;15.25;;;2.80;99.90;;;;;;5070761;28;20053;-57
2023/01/24 09:11:21;;;;;;;21.58;14.88;;;2.80;99.90;;;;;;5071076;28;20056;-58
2023/01/24 09:13:47;;;;;;;23.85;14.30;;;2.80;99.90;;;;;;5082827;28;20107;-57
2023/01/24 09:16:14;;;;;;;21.70;14.13;;;2.80;99.90;;;;;;5093006;28;20415;-58
2023/01/24 09:18:41;;;;;;;21.65;14.80;;;2.80;99.90;;;;;;5075790;28;20037;-55
2023/01/24 09:21:08;;;;;;;23.05;14.80;;;2.90;99.90;;;;;;5070141;28;20047;-58
2023/01/24 09:23:35;;;;;;;21.70;13.95;;;2.80;99.90;;;;;;4999383;22;20465;-56
2023/01/24 09:26:01;;;;;;;23.20;15.07;;;2.90;99.90;;;;;;5018872;28;20443;-45
2023/01/24 09:28:30;;;;;;;20.67;13.98;;;2.90;99.90;;;;;;5028702;28;20049;-57
2023/01/24 09:30:56;;;;;;;22.85;14.10;;;2.90;99.90;;;;;;5032742;28;20061;-48
2023/01/24 09:33:23;;;;;;;20.55;13.50;;;2.90;99.90;;;;;;5033996;28;21118;-56
2023/01/24 09:35:54;;;;;;;22.95;15.20;;;2.90;99.90;;;;;;5032900;28;20045;-54
2023/01/24 09:38:22;;;;;;;22.03;15.27;;;2.90;99.90;;;;;;5033713;28;20084;-56
2023/01/24 09:40:54;;;;;;;21.33;14.40;;;2.90;99.90;;;;;;5033685;28;20308;-57
2023/01/24 09:43:45;;;;;;;21.55;14.35;;;2.80;99.90;;;;;;5033315;28;20508;-58
2023/01/24 09:46:27;;;;;;;20.92;14.00;;;2.90;99.90;;;;;;5026200;28;20045;-50
2023/01/24 09:49:01;;;;;;;22.70;15.27;;;2.90;99.90;;;;;;5032701;28;20077;-57
2023/01/24 09:51:30;;;;;;;20.50;14.95;;;2.90;99.90;;;;;;5032349;28;20061;-55
2023/01/24 09:53:58;;;;;;;21.95;14.43;;;2.90;99.90;;;;;;5033370;28;20103;-58
2023/01/24 09:56:30;;;;;;;23.75;14.27;;;2.90;99.90;;;;;;5040015;28;20073;-54
2023/01/24 09:59:12;;;;;;;22.65;14.18;;;2.90;99.90;;;;;;5053674;28;20053;-57
2023/01/24 10:01:41;;;;;;;24.80;14.95;;;2.90;99.90;;;;;;5052169;28;20057;-55
2023/01/24 10:04:16;;;;;;;22.20;14.25;;;2.90;99.90;;;;;;5050349;28;20796;-49
2023/01/24 10:06:46;;;;;;;23.48;14.50;;;2.90;99.90;;;;;;5032344;28;20084;-57
2023/01/24 10:09:15;;;;;;;20.45;14.50;;;2.90;99.90;;;;;;5032600;28;20049;-54
2023/01/24 10:11:45;;;;;;;19.63;14.10;;;2.90;99.90;;;;;;5029339;28;20097;-58
2023/01/24 10:14:28;;;;;;;19.80;13.77;;;3.00;99.90;;;;;;5032979;28;20665;-56
2023/01/24 10:17:39;;;;;;;21.98;15.00;;;3.00;99.90;;;;;;5030925;28;20054;-56
2023/01/24 10:20:16;;;;;;;19.33;13.02;;;3.00;99.90;;;;;;4974067;28;20127;-58
2023/01/24 10:23:05;;;;;;;21.48;14.43;;;3.00;99.90;;;;;;5032750;28;20093;-58
2023/01/24 10:25:35;;;;;;;22.60;14.73;;;2.90;99.90;;;;;;5033343;28;20053;-56
2023/01/24 10:28:02;;;;;;;20.95;14.27;;;3.00;99.90;;;;;;5031061;28;20089;-57
2023/01/24 10:30:31;;;;;;;22.48;15.38;;;3.00;99.90;;;;;;5032802;28;20049;-58
2023/01/24 10:33:00;;;;;;;21.90;14.32;;;2.90;99.90;;;;;;5031264;28;20111;-53
2023/01/24 10:35:29;;;;;;;23.33;15.05;;;3.00;99.90;;;;;;5032586;28;20137;-58
2023/01/24 10:37:58;;;;;;;23.77;15.68;;;3.00;99.90;;;;;;5031356;28;20061;-59
2023/01/24 10:40:25;;;;;;;25.73;16.63;;;3.00;99.90;;;;;;5032629;28;20150;-53
2023/01/24 10:42:52;;;;;;;22.10;15.82;;;3.00;99.90;;;;;;5031352;28;20058;-56
2023/01/24 10:45:30;;;;;;;22.55;15.40;;;3.10;99.90;;;;;;5032630;28;20103;-58
2023/01/24 10:47:59;;;;;;;21.77;15.10;;;3.10;99.90;;;;;;5032485;28;20057;-57
2023/01/24 10:50:34;;;;;;;23.50;16.20;;;3.10;99.90;;;;;;5031159;28;20056;-58
2023/01/24 10:53:14;;;;;;;25.52;16.17;;;3.10;99.90;;;;;;5032451;28;20115;-55
2023/01/24 10:55:41;;;;;;;23.38;14.70;;;3.10;99.90;;;;;;5032347;28;20064;-55
2023/01/24 10:58:20;;;;;;;23.52;15.30;;;3.10;99.90;;;;;;5032178;28;20508;-59
2023/01/24 11:00:48;;;;;;;19.73;15.00;;;3.20;99.90;;;;;;5031778;28;20081;-59
2023/01/24 11:03:20;;;;;;;21.73;14.63;;;3.20;99.90;;;;;;5032300;28;20053;-55
2023/01/24 11:05:48;;;;;;;22.52;16.00;;;3.20;99.90;;;;;;5030369;28;20127;-54
2023/01/24 11:08:19;;;;;;;22.15;15.55;;;3.20;99.90;;;;;;5031813;28;20084;-58
2023/01/24 11:10:46;;;;;;;25.33;15.27;;;3.20;99.90;;;;;;5011212;28;20073;-58
2023/01/24 11:13:26;;;;;;;22.52;14.52;;;3.20;99.90;;;;;;5013108;28;20058;-57
2023/01/24 11:15:55;;;;;;;22.40;14.60;;;3.20;99.90;;;;;;5031686;28;20501;-57
2023/01/24 11:18:25;;;;;;;22.08;15.23;;;3.20;99.90;;;;;;5030582;28;20057;-57
2023/01/24 11:21:05;;;;;;;22.65;14.55;;;3.20;99.90;;;;;;5030967;28;20050;-57
2023/01/24 11:23:32;;;;;;;22.73;15.35;;;3.20;99.90;;;;;;5030579;28;20575;-55
2023/01/24 11:26:02;;;;;;;21.23;14.77;;;3.20;99.90;;;;;;5026793;28;20718;-57
2023/01/24 11:28:29;;;;;;;21.40;15.23;;;3.20;99.90;;;;;;5030689;28;20057;-51
2023/01/24 11:30:57;;;;;;;20.63;14.52;;;3.20;99.90;;;;;;5029341;28;20107;-57
2023/01/24 11:33:42;;;;;;;23.48;15.38;;;3.20;99.90;;;;;;5030687;28;20091;-57
2023/01/24 11:36:13;;;;;;;22.38;14.70;;;3.20;99.90;;;;;;5026661;28;20096;-48
2023/01/24 11:38:42;;;;;;;20.35;14.73;;;3.20;99.90;;;;;;5031716;28;20168;-55
2023/01/24 11:41:11;;;;;;;21.92;15.15;;;3.20;99.90;;;;;;5031378;28;20085;-56
2023/01/24 11:44:15;;;;;;;20.95;15.30;;;3.10;99.90;;;;;;5030737;28;20053;-56
2023/01/24 11:46:50;;;;;;;22.13;15.27;;;3.20;99.90;;;;;;5030870;28;20084;-58
2023/01/24 11:49:27;;;;;;;21.95;15.63;;;3.20;99.90;;;;;;5030579;28;20084;-57
2023/01/24 11:51:56;;;;;;;20.48;14.77;;;3.20;99.90;;;;;;5029853;28;20482;-53
2023/01/24 11:54:31;;;;;;;25.15;14.82;;;3.20;99.90;;;;;;5025647;28;20136;-57
2023/01/24 11:57:01;;;;;;;21.63;14.75;;;3.20;99.90;;;;;;5031941;28;20080;-58
2023/01/24 11:59:40;;;;;;;21.38;15.18;;;3.20;99.90;;;;;;5031486;28;20060;-57
2023/01/24 12:02:20;;;;;;;23.48;16.10;;;3.10;99.90;;;;;;5030221;28;20083;-58
2023/01/24 12:05:19;;;;;;;22.00;15.43;;;3.20;99.90;;;;;;5021512;28;20119;-45
2023/01/24 12:07:53;;;;;;;21.50;14.73;;;3.20;99.90;;;;;;5013892;28;20123;-51
2023/01/24 12:10:23;;;;;;;23.98;15.30;;;3.20;99.90;;;;;;5022176;28;20053;-55
2023/01/24 12:12:52;;;;;;;24.08;16.20;;;3.20;99.90;;;;;;5020479;28;20085;-58
2023/01/24 12:15:24;;;;;;;24.15;16.40;;;3.20;99.90;;;;;;5020085;28;20124;-59
2023/01/24 12:18:18;;;;;;;22.73;15.35;;;3.20;99.90;;;;;;5029258;28;20057;-53
2023/01/24 12:20:57;;;;;;;21.42;14.48;;;3.20;99.90;;;;;;5027015;28;20073;-55
2023/01/24 12:23:28;;;;;;;23.40;15.68;;;3.10;99.90;;;;;;5030106;28;20085;-57
2023/01/24 12:25:56;;;;;;;22.92;16.05;;;3.20;99.90;;;;;;5028885;28;20536;-58
2023/01/24 12:28:28;;;;;;;24.08;15.82;;;3.10;99.90;;;;;;5029903;28;20136;-57
2023/01/24 12:30:57;;;;;;;20.98;14.50;;;3.20;99.90;;;;;;5011487;28;20478;-59
2023/01/24 12:33:26;;;;;;;23.92;16.52;;;3.10;99.90;;;;;;5010504;28;20126;-57
2023/01/24 12:35:54;;;;;;;22.60;16.10;;;3.10;99.90;;;;;;5011518;28;20052;-53
2023/01/24 12:38:23;;;;;;;24.13;16.73;;;3.10;99.90;;;;;;5009855;28;20501;-57
2023/01/24 12:40:53;;;;;;;24.35;16.40;;;3.20;99.90;;;;;;5009735;28;20556;-57
2023/01/24 12:43:23;;;;;;;24.08;15.65;;;3.10;99.90;;;;;;5011058;28;20093;-58
2023/01/24 12:45:55;;;;;;;26.45;17.45;;;3.20;99.90;;;;;;5010530;28;20050;-52
2023/01/24 12:48:26;;;;;;;21.23;15.20;;;3.20;99.90;;;;;;5012445;28;20501;-55
2023/01/24 12:50:56;;;;;;;25.13;16.92;;;3.20;99.90;;;;;;5021005;28;20100;-58
2023/01/24 12:53:26;;;;;;;22.35;16.27;;;3.30;99.90;;;;;;5035018;28;20084;-55
2023/01/24 12:55:57;;;;;;;24.35;16.38;;;3.20;99.90;;;;;;5033859;28;20049;-57
2023/01/24 12:58:25;;;;;;;22.50;16.40;;;3.40;99.90;;;;;;5033584;28;20458;-56
2023/01/24 13:00:59;;;;;;;26.45;16.45;;;3.20;99.90;;;;;;5033563;28;20057;-58
2023/01/24 13:03:55;;;;;;;22.73;15.85;;;3.20;99.90;;;;;;5034176;28;20374;-54
2023/01/24 13:06:26;;;;;;;23.75;15.43;;;3.20;99.90;;;;;;5032923;28;20058;-57
2023/01/24 13:08:59;;;;;;;21.13;16.15;;;3.20;99.90;;;;;;5034572;28;20057;-56
2023/01/24 13:11:28;;;;;;;24.52;16.20;;;3.10;99.90;;;;;;5031814;28;20088;-52
2023/01/24 13:14:02;;;;;;;24.95;15.82;;;3.20;99.90;;;;;;5032222;28;20468;-52
2023/01/24 13:16:45;;;;;;;21.52;15.05;;;3.20;99.90;;;;;;5034197;28;20041;-54
2023/01/24 13:19:15;;;;;;;22.73;14.70;;;3.10;99.90;;;;;;5032140;28;20126;-54
2023/01/24 13:21:44;;;;;;;21.37;15.37;;;3.10;99.90;;;;;;5034437;28;20142;-58
2023/01/24 13:24:21;;;;;;;22.15;15.63;;;3.10;99.90;;;;;;5034635;28;20111;-56
2023/01/24 13:27:04;;;;;;;22.27;15.60;;;3.00;99.90;;;;;;5033570;28;20469;-58